Time;durP1;ratioP1;P1;durP2;ratioP2;P2;SDS_P1;SDS_P2;PMS_P1;PMS_P2;Temp;Humidity;BMP_temperature;BMP_pressure;BME280_temperature;BME280_humidity;BME280_pressure;Samples;Min_cycle;Max_cycle;Signal;HPM_P1;HPM_P2
2023/09/19 00:07:04;;;;;;;12.57;2.50;;;15.60;99.90;;;;;;25585482;23;19997;-63
2023/09/19 00:17:08;;;;;;;10.63;2.53;;;15.80;99.90;;;;;;25591733;23;20001;-62
2023/09/19 00:27:09;;;;;;;8.13;1.80;;;15.90;99.90;;;;;;25593074;23;20044;-61
2023/09/19 00:37:12;;;;;;;11.80;2.20;;;15.80;99.90;;;;;;25592883;23;20005;-56
2023/09/19 00:47:17;;;;;;;11.43;2.28;;;15.90;99.90;;;;;;25565978;23;20052;-57
2023/09/19 00:57:22;;;;;;;7.47;1.92;;;15.50;99.90;;;;;;25633142;23;20067;-61
2023/09/19 01:07:24;;;;;;;6.03;1.80;;;15.30;99.90;;;;;;25590013;23;20441;-61
2023/09/19 01:17:55;;;;;;;9.63;1.98;;;15.20;99.90;;;;;;25592818;23;20009;-61
2023/09/19 01:28:12;;;;;;;5.63;1.55;;;15.00;99.90;;;;;;25580039;23;20013;-61
2023/09/19 01:38:15;;;;;;;8.60;1.65;;;14.70;99.90;;;;;;25631796;23;20005;-60
2023/09/19 01:48:27;;;;;;;5.15;2.08;;;14.90;99.90;;;;;;25590150;23;20044;-60
2023/09/19 01:58:51;;;;;;;6.10;1.70;;;15.20;99.90;;;;;;25630841;23;20013;-59
2023/09/19 02:08:55;;;;;;;5.45;1.33;;;15.40;99.90;;;;;;25603768;23;20008;-60
2023/09/19 02:18:59;;;;;;;6.18;1.75;;;15.60;99.90;;;;;;25588938;23;20009;-60
2023/09/19 02:29:04;;;;;;;7.30;1.80;;;15.70;99.90;;;;;;25588055;23;20005;-61
2023/09/19 02:39:08;;;;;;;9.43;1.88;;;15.60;99.90;;;;;;25587744;23;20005;-60
2023/09/19 02:49:10;;;;;;;6.45;1.77;;;15.50;99.90;;;;;;25587340;23;20005;-60
2023/09/19 02:59:12;;;;;;;10.10;1.65;;;15.50;99.90;;;;;;25587721;23;20337;-60
2023/09/19 03:09:15;;;;;;;6.43;1.55;;;15.20;99.90;;;;;;25586890;23;20005;-60
2023/09/19 03:19:20;;;;;;;6.03;1.73;;;14.90;99.90;;;;;;25586882;23;20005;-60
2023/09/19 03:29:23;;;;;;;4.57;1.92;;;14.60;99.90;;;;;;25559547;23;20013;-61
2023/09/19 03:39:25;;;;;;;6.20;1.42;;;14.30;99.90;;;;;;25559256;23;20067;-60
2023/09/19 03:49:26;;;;;;;6.70;1.73;;;14.10;99.90;;;;;;25590498;23;20005;-60
2023/09/19 03:59:29;;;;;;;4.00;1.08;;;14.70;99.90;;;;;;25566886;23;20009;-60
2023/09/19 04:09:31;;;;;;;7.10;1.30;;;14.90;99.90;;;;;;25566554;23;20005;-60
2023/09/19 04:19:34;;;;;;;2.88;1.02;;;14.30;99.90;;;;;;25591197;23;20051;-60
2023/09/19 04:29:37;;;;;;;5.03;1.30;;;14.80;99.90;;;;;;25565635;23;20013;-60
2023/09/19 04:39:39;;;;;;;4.32;1.50;;;14.30;99.90;;;;;;25591865;23;20005;-60
2023/09/19 04:49:41;;;;;;;4.05;1.27;;;13.50;99.90;;;;;;25591579;23;20009;-60
2023/09/19 04:59:43;;;;;;;4.20;1.75;;;12.80;99.90;;;;;;25591135;23;20012;-60
2023/09/19 05:09:45;;;;;;;8.20;1.92;;;12.50;99.90;;;;;;25590786;23;20012;-60
2023/09/19 05:19:47;;;;;;;6.43;1.50;;;12.30;99.90;;;;;;25590593;23;20005;-59
2023/09/19 05:29:50;;;;;;;4.90;1.88;;;12.10;99.90;;;;;;25586788;23;20050;-60
2023/09/19 05:39:53;;;;;;;6.13;2.22;;;12.00;99.90;;;;;;25589618;23;20009;-55
2023/09/19 05:49:55;;;;;;;6.65;1.77;;;12.00;99.90;;;;;;25589127;23;20005;-55
2023/09/19 05:59:57;;;;;;;9.35;2.08;;;12.10;99.90;;;;;;25589174;23;20112;-55
2023/09/19 06:09:59;;;;;;;4.95;1.70;;;12.10;99.90;;;;;;25589464;23;20040;-56
2023/09/19 06:20:04;;;;;;;8.77;2.90;;;12.30;99.90;;;;;;25588145;23;20005;-60
2023/09/19 06:30:07;;;;;;;8.98;2.05;;;12.50;99.90;;;;;;25588543;23;20380;-60
2023/09/19 06:40:16;;;;;;;6.70;2.25;;;12.60;99.90;;;;;;25587472;23;20009;-60
2023/09/19 06:50:22;;;;;;;6.70;1.88;;;12.80;99.90;;;;;;25628131;23;20009;-55
2023/09/19 07:00:24;;;;;;;6.15;1.77;;;13.30;99.90;;;;;;25601765;23;20000;-56
2023/09/19 07:10:27;;;;;;;3.53;1.60;;;14.20;99.90;;;;;;25586360;23;20008;-61
2023/09/19 07:20:31;;;;;;;5.72;1.50;;;15.20;99.90;;;;;;25586352;23;20001;-62
2023/09/19 07:30:37;;;;;;;3.03;1.23;;;16.40;99.90;;;;;;25585042;23;20009;-62
2023/09/19 07:40:39;;;;;;;2.42;1.00;;;17.40;99.90;;;;;;25627391;23;20068;-61
2023/09/19 07:50:43;;;;;;;5.65;1.10;;;18.30;99.90;;;;;;25328312;23;20066;-61
2023/09/19 08:00:45;;;;;;;4.72;1.23;;;18.80;99.90;;;;;;25328767;23;20013;-53
2023/09/19 08:10:56;;;;;;;2.45;0.95;;;19.20;99.90;;;;;;25328358;23;20029;-62
2023/09/19 08:21:00;;;;;;;3.20;0.68;;;19.90;99.90;;;;;;25542720;23;20012;-61
2023/09/19 08:31:06;;;;;;;2.03;0.50;;;20.50;99.90;;;;;;25585247;23;20009;-61
2023/09/19 08:41:10;;;;;;;1.92;0.75;;;20.60;99.90;;;;;;25633508;23;20335;-54
2023/09/19 08:51:27;;;;;;;2.28;0.70;;;20.80;99.90;;;;;;25592009;23;20505;-62
2023/09/19 09:01:32;;;;;;;1.55;0.60;;;21.50;99.90;;;;;;25632616;23;20005;-62
2023/09/19 09:11:34;;;;;;;3.83;0.50;;;21.60;99.90;;;;;;25590812;23;20005;-61
2023/09/19 09:21:38;;;;;;;1.10;0.50;;;21.90;99.90;;;;;;25590618;23;20309;-55
2023/09/19 09:31:42;;;;;;;2.38;0.43;;;22.50;99.90;;;;;;25589816;23;20515;-60
2023/09/19 09:41:45;;;;;;;1.48;0.40;;;21.70;99.90;;;;;;25589681;23;20016;-60
2023/09/19 09:51:59;;;;;;;1.40;0.52;;;21.60;99.90;;;;;;25589012;23;20055;-59
2023/09/19 10:02:03;;;;;;;1.20;0.55;;;21.50;98.00;;;;;;25630104;23;20445;-62
2023/09/19 10:12:08;;;;;;;0.98;0.38;;;21.80;99.90;;;;;;25588523;23;20005;-60
2023/09/19 10:22:20;;;;;;;1.58;0.30;;;21.80;99.60;;;;;;25588276;23;20009;-60
2023/09/19 10:32:23;;;;;;;1.15;0.43;;;22.60;99.90;;;;;;25604846;23;20008;-60
2023/09/19 10:42:31;;;;;;;1.60;0.40;;;23.20;99.90;;;;;;25587029;23;20001;-60
2023/09/19 10:52:42;;;;;;;4.60;1.30;;;23.20;99.90;;;;;;25627990;23;20005;-60
2023/09/19 11:02:44;;;;;;;4.93;1.60;;;23.40;99.90;;;;;;25627934;23;20370;-59
2023/09/19 11:12:46;;;;;;;4.60;1.40;;;23.40;99.90;;;;;;25586081;23;20005;-55
2023/09/19 11:33:23;;;;;;;2.60;1.20;;;23.10;99.90;;;;;;25585877;23;20020;-61
2023/09/19 11:43:33;;;;;;;3.22;1.67;;;23.50;99.90;;;;;;25588529;23;20009;-61
2023/09/19 11:53:37;;;;;;;6.25;1.80;;;24.90;99.90;;;;;;25585288;23;20013;-62
2023/09/19 12:03:47;;;;;;;6.38;1.70;;;24.80;99.90;;;;;;25585756;23;20025;-65
2023/09/19 12:13:50;;;;;;;5.22;1.50;;;23.20;99.90;;;;;;25632790;23;20029;-61
2023/09/19 12:24:19;;;;;;;2.58;1.40;;;23.60;99.90;;;;;;25592876;23;20055;-61
2023/09/19 12:34:23;;;;;;;7.45;1.65;;;25.00;99.90;;;;;;25588177;23;20017;-62
2023/09/19 12:44:25;;;;;;;6.70;1.30;;;24.40;99.90;;;;;;25591804;23;20009;-61
2023/09/19 12:54:41;;;;;;;3.13;1.52;;;23.80;99.90;;;;;;25591677;23;20001;-61
2023/09/19 13:04:53;;;;;;;8.43;1.75;;;24.00;99.90;;;;;;25632072;23;20009;-56
2023/09/19 13:15:20;;;;;;;5.25;1.90;;;23.70;99.90;;;;;;25631204;23;20036;-56
2023/09/19 13:25:22;;;;;;;5.25;1.85;;;22.80;99.90;;;;;;25631225;23;20005;-62
2023/09/19 13:35:24;;;;;;;4.07;1.63;;;22.80;99.90;;;;;;25588791;23;20016;-61
2023/09/19 13:45:26;;;;;;;9.07;1.98;;;21.90;99.90;;;;;;25589851;23;20068;-60
2023/09/19 13:55:28;;;;;;;4.82;1.55;;;22.50;99.90;;;;;;25589462;23;20012;-61
2023/09/19 14:05:31;;;;;;;3.33;1.70;;;22.10;99.90;;;;;;25588984;23;20301;-61
2023/09/19 14:15:36;;;;;;;4.38;1.92;;;23.20;99.90;;;;;;25588731;23;20059;-62
2023/09/19 14:25:38;;;;;;;4.53;2.17;;;23.30;99.90;;;;;;25588227;23;20009;-62
2023/09/19 14:35:40;;;;;;;5.47;1.95;;;22.50;99.90;;;;;;25587580;23;20095;-62
2023/09/19 14:45:42;;;;;;;6.22;2.53;;;22.20;99.90;;;;;;25587444;23;20012;-62
2023/09/19 14:55:45;;;;;;;7.63;2.72;;;22.20;99.90;;;;;;25587046;23;20005;-62
2023/09/19 15:05:47;;;;;;;8.00;2.42;;;22.00;99.90;;;;;;25587381;23;20013;-62
2023/09/19 15:15:49;;;;;;;7.15;2.92;;;21.50;99.90;;;;;;25586926;23;20016;-62
2023/09/19 15:25:53;;;;;;;7.93;3.90;;;20.70;99.90;;;;;;25561474;23;20464;-52
2023/09/19 15:36:21;;;;;;;5.88;3.30;;;20.30;99.90;;;;;;25585945;23;20013;-61
2023/09/19 15:46:23;;;;;;;9.70;3.30;;;19.80;99.90;;;;;;25587774;23;20013;-52
2023/09/19 15:56:25;;;;;;;7.32;3.30;;;19.10;99.90;;;;;;25594271;23;20005;-61
2023/09/19 16:06:30;;;;;;;7.70;3.30;;;18.90;99.90;;;;;;25593697;23;20428;-60
2023/09/19 16:16:34;;;;;;;11.18;4.60;;;18.60;99.90;;;;;;25634703;23;20005;-60
2023/09/19 16:26:37;;;;;;;5.85;3.72;;;18.30;99.90;;;;;;25593157;23;20352;-61
2023/09/19 16:36:38;;;;;;;10.63;4.65;;;17.90;99.90;;;;;;25589073;23;20522;-60
2023/09/19 16:46:41;;;;;;;7.35;4.63;;;17.40;99.90;;;;;;25592850;23;20013;-60
2023/09/19 16:56:43;;;;;;;13.18;6.10;;;17.10;99.90;;;;;;25591778;23;20009;-60
2023/09/19 17:06:46;;;;;;;17.65;10.13;;;16.70;99.90;;;;;;25592317;23;20012;-60
2023/09/19 17:16:48;;;;;;;14.60;8.32;;;16.20;99.90;;;;;;25565726;23;20017;-53
2023/09/19 17:26:50;;;;;;;12.55;7.85;;;16.00;99.90;;;;;;25591003;23;20024;-54
2023/09/19 17:36:52;;;;;;;15.43;8.40;;;15.90;99.90;;;;;;25632011;23;20009;-60
2023/09/19 17:46:54;;;;;;;13.20;8.25;;;15.80;99.90;;;;;;25590612;23;20060;-60
2023/09/19 17:56:56;;;;;;;17.05;9.32;;;15.60;99.90;;;;;;25589920;23;20456;-60
2023/09/19 18:06:58;;;;;;;14.93;9.45;;;15.30;99.90;;;;;;25591441;23;20016;-60
2023/09/19 18:17:00;;;;;;;17.42;9.93;;;15.20;99.90;;;;;;25589289;23;20052;-60
2023/09/19 18:27:04;;;;;;;19.17;10.57;;;15.20;99.90;;;;;;25588684;23;20383;-60
2023/09/19 18:37:06;;;;;;;15.88;8.98;;;15.20;99.90;;;;;;25306515;23;20014;-52
2023/09/19 18:47:08;;;;;;;18.73;10.65;;;15.10;99.90;;;;;;25330728;23;20010;-60
2023/09/19 18:57:12;;;;;;;22.27;10.68;;;14.70;99.90;;;;;;25330563;23;20012;-60
2023/09/19 19:07:17;;;;;;;17.45;10.43;;;14.30;99.90;;;;;;25531692;23;20448;-51
2023/09/19 19:17:21;;;;;;;19.90;10.65;;;14.00;99.90;;;;;;25586717;23;20388;-60
2023/09/19 19:27:23;;;;;;;13.20;9.20;;;13.80;99.90;;;;;;25583456;23;20064;-60
2023/09/19 19:37:25;;;;;;;16.60;8.20;;;13.50;99.90;;;;;;25584962;23;20008;-52
2023/09/19 19:47:28;;;;;;;18.00;9.05;;;13.20;99.90;;;;;;25586320;23;20012;-49
2023/09/19 19:57:31;;;;;;;16.10;8.38;;;12.90;99.90;;;;;;25587324;23;20020;-60
2023/09/19 20:07:33;;;;;;;15.50;9.10;;;12.80;99.90;;;;;;25586757;23;20009;-60
2023/09/19 20:17:35;;;;;;;19.10;8.40;;;12.70;99.90;;;;;;25587195;23;20008;-60
2023/09/19 20:27:39;;;;;;;15.77;7.97;;;12.60;99.90;;;;;;25588289;23;20009;-59
2023/09/19 20:37:41;;;;;;;16.20;9.02;;;12.60;99.90;;;;;;25594689;23;20018;-59
2023/09/19 20:47:45;;;;;;;17.48;8.00;;;12.50;99.90;;;;;;25594502;23;20001;-60
2023/09/19 20:57:47;;;;;;;11.25;4.95;;;12.30;99.90;;;;;;25593875;23;20012;-60
2023/09/19 21:07:48;;;;;;;11.52;4.50;;;12.20;99.90;;;;;;25567480;23;20005;-60
2023/09/19 21:17:50;;;;;;;16.20;7.80;;;12.20;99.90;;;;;;25593313;23;20005;-60
2023/09/19 21:27:52;;;;;;;15.82;9.05;;;12.20;99.90;;;;;;25594030;23;20016;-60
2023/09/19 21:37:55;;;;;;;19.60;10.70;;;12.40;99.90;;;;;;25592047;23;20009;-59
2023/09/19 21:47:57;;;;;;;17.83;11.43;;;12.30;99.90;;;;;;25592354;23;20005;-60
2023/09/19 21:57:59;;;;;;;20.98;11.48;;;12.40;99.90;;;;;;25591450;23;20002;-59
2023/09/19 22:08:03;;;;;;;21.73;10.85;;;12.50;99.90;;;;;;25591181;23;20024;-60
2023/09/19 22:18:05;;;;;;;18.42;8.98;;;12.40;99.90;;;;;;25591007;23;20020;-60
2023/09/19 22:28:11;;;;;;;21.98;9.65;;;12.20;99.90;;;;;;25590347;23;20092;-54
2023/09/19 22:38:15;;;;;;;18.92;10.48;;;12.20;99.90;;;;;;25631094;23;20039;-60
2023/09/19 22:48:16;;;;;;;21.98;10.50;;;12.30;99.90;;;;;;25589287;23;20499;-53
2023/09/19 22:58:18;;;;;;;23.00;11.60;;;12.40;99.90;;;;;;25588750;23;20005;-49
2023/09/19 23:08:21;;;;;;;16.95;10.52;;;12.30;99.90;;;;;;25588901;23;20223;-60
2023/09/19 23:18:23;;;;;;;20.10;11.85;;;12.40;99.90;;;;;;25588419;23;20384;-51
2023/09/19 23:28:25;;;;;;;20.38;10.95;;;12.40;99.90;;;;;;25587926;23;20067;-60
2023/09/19 23:38:27;;;;;;;17.55;11.63;;;12.30;99.90;;;;;;25588019;23;20005;-51
2023/09/19 23:48:28;;;;;;;19.42;11.05;;;12.30;99.90;;;;;;25588039;23;20063;-59
2023/09/19 23:58:32;;;;;;;18.15;10.60;;;12.40;99.90;;;;;;25587774;23;20333;-60
